createdAt,value
2023-03-28T00:02:05.400Z,4.30
2023-03-28T00:04:31.818Z,6.97
2023-03-28T00:06:58.216Z,3.03
2023-03-28T00:09:25.740Z,2.22
2023-03-28T00:11:52.240Z,5.15
2023-03-28T00:14:18.652Z,3.50
2023-03-28T00:16:47.751Z,5.60
2023-03-28T00:19:17.249Z,6.55
2023-03-28T00:21:47.189Z,4.90
2023-03-28T00:24:15.867Z,8.30
2023-03-28T00:26:44.015Z,4.15
2023-03-28T00:29:21.147Z,4.30
2023-03-28T00:31:49.533Z,9.52
2023-03-28T00:34:16.498Z,2.38
2023-03-28T00:36:43.060Z,3.47
2023-03-28T00:39:10.504Z,7.22
2023-03-28T00:41:40.283Z,4.03
2023-03-28T00:44:44.616Z,4.55
2023-03-28T00:47:38.853Z,4.75
2023-03-28T00:50:11.241Z,7.03
2023-03-28T00:52:43.830Z,6.68
2023-03-28T00:55:17.069Z,9.32
2023-03-28T00:57:46.053Z,5.43
2023-03-28T01:00:13.294Z,11.07
2023-03-28T01:02:43.106Z,5.32
2023-03-28T01:05:12.493Z,4.63
2023-03-28T01:07:46.014Z,5.82
2023-03-28T01:10:17.651Z,4.63
2023-03-28T01:12:44.128Z,4.05
2023-03-28T01:15:11.473Z,5.55
2023-03-28T01:17:48.217Z,4.43
2023-03-28T01:20:26.643Z,6.70
2023-03-28T01:23:14.411Z,9.68
2023-03-28T01:25:56.836Z,8.95
2023-03-28T01:29:05.574Z,12.75
2023-03-28T01:31:54.070Z,7.93
2023-03-28T01:35:14.246Z,14.15
2023-03-28T01:37:58.289Z,13.85
2023-03-28T01:40:40.939Z,8.93
2023-03-28T01:43:20.300Z,9.40
2023-03-28T01:45:56.382Z,7.88
2023-03-28T01:48:38.047Z,9.77
2023-03-28T01:51:07.995Z,9.68
2023-03-28T01:53:47.488Z,8.55
2023-03-28T01:56:30.542Z,11.13
2023-03-28T01:59:11.291Z,9.95
2023-03-28T02:02:09.959Z,11.48
2023-03-28T02:04:38.728Z,14.48
2023-03-28T02:07:08.852Z,9.40
2023-03-28T02:09:43.089Z,6.35
2023-03-28T02:12:26.890Z,10.10
2023-03-28T02:15:13.775Z,4.53
2023-03-28T02:18:11.091Z,7.00
2023-03-28T02:21:02.096Z,9.32
2023-03-28T02:23:48.433Z,9.75
2023-03-28T02:26:41.533Z,9.63
2023-03-28T02:29:18.884Z,8.52
2023-03-28T02:32:06.868Z,10.02
2023-03-28T02:34:33.314Z,9.95
2023-03-28T02:37:14.572Z,15.38
2023-03-28T02:39:59.430Z,12.63
2023-03-28T02:42:54.832Z,12.02
2023-03-28T02:45:52.579Z,6.00
2023-03-28T02:48:30.924Z,9.77
2023-03-28T02:51:16.271Z,11.43
2023-03-28T02:53:58.197Z,8.82
2023-03-28T02:56:52.962Z,9.57
2023-03-28T02:59:55.385Z,8.23
2023-03-28T03:02:22.769Z,15.57
2023-03-28T03:04:50.558Z,9.93
2023-03-28T03:07:20.218Z,9.30
2023-03-28T03:09:46.649Z,12.73
2023-03-28T03:12:13.846Z,8.60
2023-03-28T03:14:40.334Z,9.98
2023-03-28T03:17:29.688Z,9.20
2023-03-28T03:19:56.193Z,5.78
2023-03-28T03:22:23.456Z,7.38
2023-03-28T03:24:51.539Z,18.08
2023-03-28T03:27:19.222Z,3.88
2023-03-28T03:29:46.465Z,4.38
2023-03-28T03:32:15.513Z,7.85
2023-03-28T03:34:47.622Z,10.60
2023-03-28T03:37:14.461Z,16.05
2023-03-28T03:39:40.892Z,6.28
2023-03-28T03:42:07.317Z,8.13
2023-03-28T03:44:33.725Z,9.70
2023-03-28T03:47:00.616Z,10.18
2023-03-28T03:49:28.342Z,12.27
2023-03-28T03:51:55.331Z,8.73
2023-03-28T03:54:21.876Z,13.43
2023-03-28T03:56:49.208Z,8.80
2023-03-28T03:59:16.419Z,4.10
2023-03-28T04:01:44.836Z,9.73
2023-03-28T04:04:31.299Z,4.95
2023-03-28T04:07:06.622Z,7.47
2023-03-28T04:09:34.331Z,12.88
2023-03-28T04:12:03.706Z,19.95
2023-03-28T04:14:31.697Z,10.63
2023-03-28T04:17:21.314Z,13.20
2023-03-28T04:22:18.258Z,10.98
2023-03-28T04:24:53.502Z,11.52
2023-03-28T04:27:34.215Z,5.88
2023-03-28T04:30:01.664Z,8.98
2023-03-28T04:32:54.350Z,6.13
2023-03-28T04:35:24.427Z,8.13
2023-03-28T04:37:53.758Z,6.43
2023-03-28T04:40:21.646Z,5.25
2023-03-28T04:42:57.839Z,4.90
2023-03-28T04:45:35.441Z,9.38
2023-03-28T04:48:14.423Z,5.63
2023-03-28T04:50:41.125Z,4.25
2023-03-28T04:53:07.720Z,10.68
2023-03-28T04:55:36.007Z,9.88
2023-03-28T04:58:15.969Z,5.13
2023-03-28T05:00:42.821Z,8.15
2023-03-28T05:03:33.044Z,8.73
2023-03-28T05:06:03.125Z,13.90
2023-03-28T05:08:29.733Z,10.40
2023-03-28T05:10:56.189Z,9.18
2023-03-28T05:13:23.216Z,10.75
2023-03-28T05:16:06.925Z,5.95
2023-03-28T05:18:53.752Z,7.75
2023-03-28T05:21:28.052Z,11.10
2023-03-28T05:23:54.470Z,12.68
2023-03-28T05:26:23.902Z,7.22
2023-03-28T05:28:51.137Z,5.07
2023-03-28T05:31:17.652Z,13.90
2023-03-28T05:33:48.976Z,3.60
2023-03-28T05:36:24.469Z,8.13
2023-03-28T05:38:51.813Z,9.85
2023-03-28T05:45:37.973Z,5.32
2023-03-28T05:48:18.529Z,4.47
2023-03-28T05:50:45.146Z,14.38
2023-03-28T05:53:11.588Z,10.00
2023-03-28T05:55:38.956Z,10.05
2023-03-28T05:58:06.359Z,8.38
2023-03-28T06:00:37.810Z,4.25
2023-03-28T06:03:04.574Z,12.40
2023-03-28T06:05:35.837Z,12.50
2023-03-28T06:08:09.167Z,6.57
2023-03-28T06:10:36.587Z,4.53
2023-03-28T06:13:15.015Z,4.00
2023-03-28T06:15:43.806Z,4.57
2023-03-28T06:18:10.520Z,7.22
2023-03-28T06:20:43.556Z,7.38
2023-03-28T06:23:10.140Z,5.80
2023-03-28T06:25:36.572Z,8.00
2023-03-28T06:28:03.255Z,8.98
2023-03-28T06:30:30.813Z,4.70
2023-03-28T06:32:58.346Z,4.97
2023-03-28T06:35:24.764Z,7.10
2023-03-28T06:37:51.228Z,7.57
2023-03-28T06:40:25.001Z,6.55
2023-03-28T06:42:51.772Z,5.00
2023-03-28T06:45:41.927Z,5.20
2023-03-28T06:48:12.348Z,3.70
2023-03-28T06:51:16.707Z,8.18
2023-03-28T06:53:45.202Z,9.85
2023-03-28T06:56:13.120Z,4.03
2023-03-28T06:58:39.599Z,3.45
2023-03-28T07:01:10.185Z,2.72
2023-03-28T07:03:46.227Z,3.72
2023-03-28T07:06:18.564Z,6.25
2023-03-28T07:08:45.641Z,6.28
2023-03-28T07:11:13.060Z,5.50
2023-03-28T07:13:41.321Z,8.52
2023-03-28T07:16:15.331Z,2.28
2023-03-28T07:18:43.342Z,4.95
2023-03-28T07:21:15.896Z,3.38
2023-03-28T07:23:42.882Z,3.03
2023-03-28T07:26:12.461Z,5.07
2023-03-28T07:28:39.141Z,2.80
2023-03-28T07:31:05.982Z,4.57
2023-03-28T07:33:37.641Z,8.88
2023-03-28T07:36:13.686Z,5.50
2023-03-28T07:38:41.979Z,2.53
2023-03-28T07:41:08.889Z,7.13
2023-03-28T07:43:35.994Z,3.85
2023-03-28T07:46:13.952Z,3.90
2023-03-28T07:48:41.155Z,3.88
2023-03-28T07:51:09.679Z,5.43
2023-03-28T07:53:40.123Z,5.10
2023-03-28T07:56:11.873Z,3.93
2023-03-28T07:58:54.964Z,2.75
2023-03-28T08:01:22.767Z,5.57
2023-03-28T08:03:53.206Z,7.15
2023-03-28T08:06:31.149Z,3.45
2023-03-28T08:09:00.530Z,3.08
2023-03-28T08:11:39.099Z,3.88
2023-03-28T08:14:09.195Z,5.20
2023-03-28T08:16:35.987Z,3.95
2023-03-28T08:19:10.741Z,3.72
2023-03-28T08:21:54.876Z,4.57
2023-03-28T08:24:32.907Z,4.03
2023-03-28T08:27:09.013Z,4.28
2023-03-28T08:29:35.516Z,3.00
2023-03-28T08:32:03.949Z,1.55
2023-03-28T08:34:30.714Z,2.05
2023-03-28T08:36:59.892Z,3.08
2023-03-28T08:39:27.482Z,2.33
2023-03-28T08:42:14.939Z,8.55
2023-03-28T08:45:04.773Z,4.32
2023-03-28T08:47:33.148Z,4.43
2023-03-28T08:50:06.968Z,3.20
2023-03-28T08:52:34.341Z,1.95
2023-03-28T08:55:22.470Z,4.95
2023-03-28T08:57:53.126Z,2.03
2023-03-28T09:00:27.501Z,3.40
2023-03-28T09:02:55.069Z,7.65
2023-03-28T09:05:52.573Z,5.35
2023-03-28T09:08:27.628Z,3.42
2023-03-28T09:11:11.151Z,2.60
2023-03-28T09:14:09.824Z,3.65
2023-03-28T09:16:59.652Z,2.60
2023-03-28T09:20:11.129Z,1.92
2023-03-28T09:23:12.765Z,1.02
2023-03-28T09:26:23.478Z,2.13
2023-03-28T09:29:02.215Z,2.60
2023-03-28T09:31:37.628Z,1.02
2023-03-28T09:34:07.083Z,1.80
2023-03-28T09:36:49.039Z,2.72
2023-03-28T09:39:40.221Z,1.10
2023-03-28T09:42:13.981Z,2.53
2023-03-28T09:45:02.957Z,1.58
2023-03-28T09:47:49.935Z,3.47
2023-03-28T09:50:20.456Z,0.70
2023-03-28T09:52:51.656Z,2.05
2023-03-28T09:55:24.155Z,2.05
2023-03-28T09:58:20.950Z,1.58
2023-03-28T10:01:36.298Z,4.85
2023-03-28T10:04:29.649Z,1.67
2023-03-28T10:07:16.552Z,1.05
2023-03-28T10:09:54.115Z,3.75
2023-03-28T10:12:32.291Z,2.17
2023-03-28T10:14:58.919Z,0.90
2023-03-28T10:17:51.505Z,1.25
2023-03-28T10:20:24.001Z,1.00
2023-03-28T10:22:56.582Z,4.13
2023-03-28T10:25:45.325Z,1.20
2023-03-28T10:28:17.777Z,1.88
2023-03-28T10:30:53.518Z,2.15
2023-03-28T10:33:25.641Z,2.67
2023-03-28T10:36:25.473Z,0.77
2023-03-28T10:38:52.688Z,7.43
2023-03-28T10:41:29.645Z,3.42
2023-03-28T10:44:25.077Z,2.53
2023-03-28T10:46:59.381Z,2.08
2023-03-28T10:49:45.808Z,1.08
2023-03-28T10:52:30.965Z,0.80
2023-03-28T10:55:13.708Z,2.03
2023-03-28T10:58:30.753Z,0.70
2023-03-28T11:01:13.479Z,2.75
2023-03-28T11:04:08.886Z,1.85
2023-03-28T11:06:46.269Z,3.08
2023-03-28T11:09:46.801Z,2.85
2023-03-28T11:13:02.735Z,1.52
2023-03-28T11:15:47.773Z,2.05
2023-03-28T11:18:35.575Z,0.70
2023-03-28T11:21:21.616Z,1.50
2023-03-28T11:24:15.877Z,1.92
2023-03-28T11:27:15.993Z,1.40
2023-03-28T11:30:09.871Z,1.70
2023-03-28T11:32:57.454Z,1.38
2023-03-28T11:35:37.770Z,0.77
2023-03-28T11:38:14.720Z,0.88
2023-03-28T11:40:53.870Z,1.05
2023-03-28T11:43:45.417Z,2.28
2023-03-28T11:46:19.232Z,1.60
2023-03-28T11:49:09.122Z,0.88
2023-03-28T11:51:45.586Z,3.38
2023-03-28T11:54:24.180Z,1.92
2023-03-28T11:57:06.872Z,1.75
2023-03-28T12:00:32.134Z,2.83
2023-03-28T12:03:19.558Z,2.42
2023-03-28T12:06:02.788Z,2.30
2023-03-28T12:08:37.547Z,2.80
2023-03-28T12:11:07.405Z,1.48
2023-03-28T12:14:08.702Z,0.80
2023-03-28T12:16:42.321Z,2.13
2023-03-28T12:19:14.844Z,5.03
2023-03-28T12:21:51.562Z,0.82
2023-03-28T12:25:06.157Z,1.52
2023-03-28T12:27:55.779Z,1.10
2023-03-28T12:30:33.958Z,0.80
2023-03-28T12:33:24.101Z,2.67
2023-03-28T12:36:18.066Z,1.33
2023-03-28T12:38:57.811Z,6.75
2023-03-28T12:41:34.389Z,0.95
2023-03-28T12:44:08.217Z,2.17
2023-03-28T12:46:55.319Z,2.80
2023-03-28T12:49:45.487Z,1.48
2023-03-28T12:52:28.827Z,1.30
2023-03-28T12:55:02.223Z,2.13
2023-03-28T12:57:46.396Z,0.98
2023-03-28T13:00:39.756Z,1.85
2023-03-28T13:03:51.777Z,1.90
2023-03-28T13:07:05.296Z,1.15
2023-03-28T13:09:39.090Z,1.20
2023-03-28T13:12:22.735Z,0.85
2023-03-28T13:15:02.589Z,3.42
2023-03-28T13:17:32.410Z,3.75
2023-03-28T13:20:17.503Z,3.78
2023-03-28T13:22:47.166Z,1.33
2023-03-28T13:25:21.064Z,1.33
2023-03-28T13:27:49.701Z,0.80
2023-03-28T13:30:17.359Z,1.30
2023-03-28T13:32:50.952Z,2.72
2023-03-28T13:35:49.697Z,1.38
2023-03-28T13:38:23.998Z,3.72
2023-03-28T13:40:56.408Z,3.03
2023-03-28T13:43:34.989Z,2.42
2023-03-28T13:46:24.943Z,2.25
2023-03-28T13:49:00.788Z,1.75
2023-03-28T13:51:31.797Z,2.28
2023-03-28T13:56:35.662Z,1.65
2023-03-28T13:59:08.027Z,2.80
2023-03-28T14:01:42.070Z,0.77
2023-03-28T14:04:23.935Z,4.50
2023-03-28T14:06:51.294Z,0.82
2023-03-28T14:09:27.651Z,2.63
2023-03-28T14:12:14.263Z,1.60
2023-03-28T14:14:44.226Z,2.60
2023-03-28T14:17:17.340Z,1.27
2023-03-28T14:19:54.929Z,2.08
2023-03-28T14:22:25.963Z,1.67
2023-03-28T14:24:57.406Z,0.85
2023-03-28T14:27:45.375Z,2.25
2023-03-28T14:30:22.504Z,1.60
2023-03-28T14:32:58.762Z,1.20
2023-03-28T14:35:31.555Z,4.00
2023-03-28T14:38:00.923Z,2.08
2023-03-28T14:40:29.168Z,2.95
2023-03-28T14:43:01.398Z,1.45
2023-03-28T14:45:29.327Z,2.10
2023-03-28T14:47:57.228Z,5.35
2023-03-28T14:50:29.347Z,2.35
2023-03-28T14:53:01.069Z,2.28
2023-03-28T14:55:28.126Z,2.38
2023-03-28T14:57:55.816Z,2.45
2023-03-28T15:00:28.485Z,1.08
2023-03-28T15:02:55.747Z,0.90
2023-03-28T15:05:23.181Z,1.52
2023-03-28T15:08:02.127Z,1.48
2023-03-28T15:10:29.344Z,4.13
2023-03-28T15:13:18.339Z,1.17
2023-03-28T15:15:47.181Z,2.05
2023-03-28T15:18:17.556Z,4.35
2023-03-28T15:20:49.314Z,2.83
2023-03-28T15:23:26.991Z,2.00
2023-03-28T15:25:54.163Z,4.18
2023-03-28T15:28:20.596Z,2.20
2023-03-28T15:30:47.638Z,3.28
2023-03-28T15:33:18.621Z,1.77
2023-03-28T15:38:19.349Z,2.90
2023-03-28T15:40:51.268Z,4.47
2023-03-28T15:43:27.048Z,1.50
2023-03-28T15:45:58.082Z,3.50
2023-03-28T15:50:54.112Z,2.95
2023-03-28T15:53:21.981Z,1.27
2023-03-28T15:55:49.851Z,4.03
2023-03-28T15:58:19.321Z,3.28
2023-03-28T16:00:52.597Z,1.65
2023-03-28T16:03:25.047Z,2.28
2023-03-28T16:06:09.806Z,4.45
2023-03-28T16:08:41.466Z,3.78
2023-03-28T16:11:17.254Z,3.03
2023-03-28T16:14:20.533Z,3.40
2023-03-28T16:17:11.294Z,3.72
2023-03-28T16:19:53.037Z,4.00
2023-03-28T16:22:21.116Z,5.22
2023-03-28T16:24:51.894Z,3.85
2023-03-28T16:27:19.452Z,5.72
2023-03-28T16:29:46.365Z,2.83
2023-03-28T16:32:15.069Z,2.20
2023-03-28T16:34:43.128Z,3.38
2023-03-28T16:37:11.437Z,2.38
2023-03-28T16:39:38.290Z,2.92
2023-03-28T16:42:06.110Z,5.10
2023-03-28T16:44:32.821Z,8.02
2023-03-28T16:47:00.171Z,4.50
2023-03-28T16:49:26.943Z,3.05
2023-03-28T16:51:54.745Z,3.25
2023-03-28T16:54:22.049Z,4.10
2023-03-28T16:56:48.517Z,4.30
2023-03-28T16:59:15.303Z,9.65
2023-03-28T17:01:43.018Z,6.30
2023-03-28T17:04:09.878Z,9.18
2023-03-28T17:06:36.494Z,4.80
2023-03-28T17:09:04.575Z,6.20
2023-03-28T17:11:31.540Z,6.10
2023-03-28T17:13:57.974Z,8.07
2023-03-28T17:16:24.883Z,7.18
2023-03-28T17:18:51.712Z,10.02
2023-03-28T17:21:18.558Z,5.22
2023-03-28T17:23:47.865Z,4.78
2023-03-28T17:26:15.532Z,7.45
2023-03-28T17:28:43.412Z,1.80
2023-03-28T17:31:12.745Z,6.68
2023-03-28T17:33:39.229Z,5.93
2023-03-28T17:36:21.037Z,5.25
2023-03-28T17:38:50.156Z,5.97
2023-03-28T17:41:17.413Z,8.63
2023-03-28T17:43:44.410Z,2.70
2023-03-28T17:46:11.952Z,6.55
2023-03-28T17:48:39.532Z,9.73
2023-03-28T17:51:07.441Z,9.55
2023-03-28T17:53:33.902Z,11.93
2023-03-28T17:56:00.744Z,7.70
2023-03-28T17:58:27.720Z,9.60
2023-03-28T18:00:54.329Z,7.53
2023-03-28T18:03:21.533Z,12.43
2023-03-28T18:06:01.154Z,8.52
2023-03-28T18:08:28.696Z,11.00
2023-03-28T18:11:00.763Z,11.20
2023-03-28T18:13:27.154Z,7.22
2023-03-28T18:15:53.601Z,8.60
2023-03-28T18:18:20.075Z,7.65
2023-03-28T18:20:46.537Z,12.65
2023-03-28T18:23:12.965Z,9.05
2023-03-28T18:25:39.627Z,14.20
2023-03-28T18:28:06.547Z,7.90
2023-03-28T18:30:33.911Z,10.40
2023-03-28T18:33:00.699Z,9.13
2023-03-28T18:35:27.661Z,8.65
2023-03-28T18:37:54.062Z,9.40
2023-03-28T18:40:20.464Z,10.15
2023-03-28T18:42:46.851Z,11.98
2023-03-28T18:45:13.296Z,10.80
2023-03-28T18:47:41.070Z,13.43
2023-03-28T18:50:10.592Z,11.05
2023-03-28T18:52:37.495Z,16.05
2023-03-28T18:55:05.075Z,10.02
2023-03-28T18:57:31.473Z,12.70
2023-03-28T18:59:58.525Z,9.38
2023-03-28T19:02:26.449Z,7.05
2023-03-28T19:04:52.992Z,9.07
2023-03-28T19:07:19.418Z,7.43
2023-03-28T19:09:45.804Z,10.18
2023-03-28T19:12:12.695Z,6.78
2023-03-28T19:14:39.212Z,7.82
2023-03-28T19:17:06.115Z,9.93
2023-03-28T19:19:37.527Z,15.48
2023-03-28T19:22:05.745Z,13.48
2023-03-28T19:24:33.055Z,12.80
2023-03-28T19:27:00.474Z,16.85
2023-03-28T19:29:28.584Z,16.23
2023-03-28T19:31:54.979Z,19.33
2023-03-28T19:34:21.545Z,15.27
2023-03-28T19:36:47.945Z,15.20
2023-03-28T19:39:14.793Z,14.70
2023-03-28T19:41:41.589Z,16.35
2023-03-28T19:44:07.990Z,21.58
2023-03-28T19:46:36.356Z,15.77
2023-03-28T19:49:06.334Z,13.68
2023-03-28T19:51:33.838Z,15.73
2023-03-28T19:54:00.287Z,15.07
2023-03-28T19:56:26.968Z,18.27
2023-03-28T19:58:53.362Z,19.38
2023-03-28T20:01:20.413Z,15.25
2023-03-28T20:03:49.434Z,13.07
2023-03-28T20:06:16.871Z,19.50
2023-03-28T20:08:43.725Z,13.68
2023-03-28T20:11:12.632Z,14.73
2023-03-28T20:13:39.723Z,10.95
2023-03-28T20:16:08.187Z,13.35
2023-03-28T20:18:36.178Z,14.73
2023-03-28T20:21:05.646Z,14.07
2023-03-28T20:23:33.126Z,10.90
2023-03-28T20:26:01.428Z,14.40
2023-03-28T20:28:32.465Z,12.75
2023-03-28T20:33:25.985Z,12.20
2023-03-28T20:35:58.143Z,13.38
2023-03-28T20:38:27.767Z,13.95
2023-03-28T20:40:54.221Z,10.45
2023-03-28T20:43:21.156Z,13.10
2023-03-28T20:45:54.466Z,9.35
2023-03-28T20:48:25.972Z,11.52
2023-03-28T20:50:53.952Z,9.15
2023-03-28T20:53:21.781Z,9.55
2023-03-28T20:55:48.186Z,11.30
2023-03-28T20:58:14.635Z,11.45
2023-03-28T21:00:41.073Z,9.98
2023-03-28T21:03:11.195Z,10.43
2023-03-28T21:05:41.910Z,6.93
2023-03-28T21:08:08.347Z,12.15
2023-03-28T21:10:36.356Z,11.13
2023-03-28T21:13:02.750Z,9.00
2023-03-28T21:15:30.488Z,8.35
2023-03-28T21:17:57.002Z,11.73
2023-03-28T21:20:23.405Z,10.80
2023-03-28T21:22:49.853Z,17.48
2023-03-28T21:25:16.620Z,11.40
2023-03-28T21:27:43.101Z,10.30
2023-03-28T21:30:11.575Z,11.77
2023-03-28T21:32:38.043Z,16.10
2023-03-28T21:35:05.316Z,10.82
2023-03-28T21:37:31.874Z,10.48
2023-03-28T21:39:58.323Z,12.80
2023-03-28T21:42:24.861Z,14.25
2023-03-28T21:44:51.934Z,12.85
2023-03-28T21:47:18.364Z,11.90
2023-03-28T21:49:45.938Z,14.18
2023-03-28T21:52:12.730Z,15.23
2023-03-28T21:54:39.118Z,14.90
2023-03-28T21:57:05.752Z,8.90
2023-03-28T21:59:32.164Z,11.73
2023-03-28T22:01:58.791Z,10.85
2023-03-28T22:04:25.190Z,13.10
2023-03-28T22:06:51.603Z,20.92
2023-03-28T22:09:19.452Z,15.60
2023-03-28T22:11:45.853Z,21.00
2023-03-28T22:14:12.803Z,15.73
2023-03-28T22:16:39.670Z,11.98
2023-03-28T22:19:08.664Z,14.82
2023-03-28T22:21:36.891Z,18.23
2023-03-28T22:24:04.278Z,15.82
2023-03-28T22:26:30.960Z,15.98
2023-03-28T22:28:59.387Z,16.23
2023-03-28T22:31:26.397Z,12.25
2023-03-28T22:33:53.961Z,13.77
2023-03-28T22:36:20.759Z,14.18
2023-03-28T22:38:47.217Z,12.07
2023-03-28T22:41:13.625Z,13.25
2023-03-28T22:43:42.596Z,8.52
2023-03-28T22:46:12.530Z,15.70
2023-03-28T22:48:39.141Z,15.77
2023-03-28T22:51:11.401Z,11.15
2023-03-28T22:53:38.761Z,9.82
2023-03-28T22:56:06.458Z,10.93
2023-03-28T22:58:33.795Z,6.57
2023-03-28T23:01:00.518Z,10.68
2023-03-28T23:03:27.549Z,11.18
2023-03-28T23:05:55.046Z,9.27
2023-03-28T23:08:22.180Z,10.43
2023-03-28T23:10:48.731Z,9.98
2023-03-28T23:13:15.318Z,14.13
2023-03-28T23:15:41.730Z,11.68
2023-03-28T23:18:08.490Z,6.72
2023-03-28T23:20:35.720Z,18.15
2023-03-28T23:23:02.123Z,12.65
2023-03-28T23:25:28.599Z,8.65
2023-03-28T23:27:55.010Z,14.45
2023-03-28T23:30:21.393Z,8.40
2023-03-28T23:32:47.981Z,12.70
2023-03-28T23:35:14.392Z,17.73
2023-03-28T23:37:40.797Z,6.45
2023-03-28T23:40:12.061Z,13.18
2023-03-28T23:42:38.473Z,10.73
2023-03-28T23:45:05.243Z,9.82
2023-03-28T23:47:31.737Z,10.65
2023-03-28T23:49:58.162Z,12.63
2023-03-28T23:52:24.568Z,8.90
2023-03-28T23:54:50.960Z,6.60
2023-03-28T23:57:17.412Z,8.15
2023-03-28T23:59:43.896Z,18.42
